createdAt,value
2022-12-11T00:00:33.766Z,99342.87
2022-12-11T00:02:38.140Z,99341.23
2022-12-11T00:04:42.595Z,99342.36
2022-12-11T00:06:46.919Z,99337.71
2022-12-11T00:08:51.287Z,99343.69
2022-12-11T00:10:55.629Z,99340.61
2022-12-11T00:12:59.960Z,99338.23
2022-12-11T00:15:04.359Z,99341.94
2022-12-11T00:17:08.888Z,99346.46
2022-12-11T00:19:13.251Z,99345.81
2022-12-11T00:21:17.554Z,99344.73
2022-12-11T00:23:21.861Z,99339.64
2022-12-11T00:25:26.131Z,99341.86
2022-12-11T00:27:30.529Z,99342.7
2022-12-11T00:29:34.851Z,99340
2022-12-11T00:31:39.264Z,99336.9
2022-12-11T00:33:43.676Z,99338.95
2022-12-11T00:35:48.033Z,99339.24
2022-12-11T00:37:52.334Z,99344.08
2022-12-11T00:39:56.677Z,99346.08
2022-12-11T00:42:00.974Z,99353.3
2022-12-11T00:44:05.266Z,99352.4
2022-12-11T00:46:09.753Z,99350.65
2022-12-11T00:48:14.206Z,99349.45
2022-12-11T00:50:18.569Z,99350.5
2022-12-11T00:52:22.876Z,99345.23
2022-12-11T00:54:27.189Z,99340.8
2022-12-11T00:56:31.495Z,99336.19
2022-12-11T00:58:35.820Z,99332.96
2022-12-11T01:00:40.137Z,99329.44
2022-12-11T01:02:44.645Z,99335.5
2022-12-11T01:04:48.964Z,99335.57
2022-12-11T01:06:53.280Z,99335.63
2022-12-11T01:08:57.613Z,99340.11
2022-12-11T01:11:01.943Z,99348.83
2022-12-11T01:13:06.258Z,99352.86
2022-12-11T01:15:11.309Z,99355.7
2022-12-11T01:17:16.342Z,99355.2
2022-12-11T01:19:20.685Z,99353.95
2022-12-11T01:21:25.016Z,99353.03
2022-12-11T01:23:29.313Z,99352.93
2022-12-11T01:25:33.646Z,99355.33
2022-12-11T01:27:37.990Z,99355.16
2022-12-11T01:29:42.301Z,99356.38
2022-12-11T01:31:46.631Z,99355.23
2022-12-11T01:33:50.949Z,99359.58
2022-12-11T01:35:55.294Z,99361.44
2022-12-11T01:37:59.612Z,99361.52
2022-12-11T01:40:03.905Z,99363.63
2022-12-11T01:42:08.263Z,99360.58
2022-12-11T01:44:12.593Z,99359.72
2022-12-11T01:46:17.048Z,99356.58
2022-12-11T01:48:21.443Z,99358.92
2022-12-11T01:50:25.756Z,99357.3
2022-12-11T01:52:30.065Z,99355.3
2022-12-11T01:54:34.384Z,99354.39
2022-12-11T01:56:38.666Z,99350.69
2022-12-11T01:58:43.030Z,99343.74
2022-12-11T02:00:47.327Z,99337.38
2022-12-11T02:02:51.791Z,99337.59
2022-12-11T02:04:56.300Z,99332.75
2022-12-11T02:07:00.593Z,99323
2022-12-11T02:09:04.930Z,99316.75
2022-12-11T02:11:09.258Z,99314.88
2022-12-11T02:13:13.599Z,99313.22
2022-12-11T02:15:18.035Z,99314.26
2022-12-11T02:17:22.355Z,99310.68
2022-12-11T02:19:26.675Z,99303.81
2022-12-11T02:21:30.977Z,99298.14
2022-12-11T02:23:35.300Z,99292.12
2022-12-11T02:25:39.641Z,99290.09
2022-12-11T02:27:43.984Z,99291.39
2022-12-11T02:29:48.329Z,99291.56
2022-12-11T02:31:52.826Z,99298.16
2022-12-11T02:33:57.225Z,99302.08
2022-12-11T02:36:01.565Z,99305.89
2022-12-11T02:38:05.904Z,99307.2
2022-12-11T02:40:10.263Z,99306
2022-12-11T02:42:14.531Z,99304.47
2022-12-11T02:44:18.833Z,99303.3
2022-12-11T02:46:23.142Z,99304.92
2022-12-11T02:48:27.439Z,99309.98
2022-12-11T02:50:31.762Z,99309.23
2022-12-11T02:52:36.306Z,99306.06
2022-12-11T02:54:40.589Z,99307.48
2022-12-11T02:56:44.891Z,99309.41
2022-12-11T02:58:51.587Z,99310.33
2022-12-11T03:01:02.332Z,99309.3
2022-12-11T03:03:06.734Z,99308.06
2022-12-11T03:05:11.666Z,99314.61
2022-12-11T03:07:16.520Z,99308.13
2022-12-11T03:09:20.783Z,99310.78
2022-12-11T03:11:25.107Z,99311.19
2022-12-11T03:13:29.371Z,99309.38
2022-12-11T03:15:33.683Z,99308.86
2022-12-11T03:17:38.020Z,99309.55
2022-12-11T03:19:42.323Z,99314.38
2022-12-11T03:21:46.671Z,99313.06
2022-12-11T03:23:50.955Z,99310.14
2022-12-11T03:25:57.109Z,99311.34
2022-12-11T03:28:01.402Z,99313
2022-12-11T03:30:05.737Z,99315
2022-12-11T03:32:10.109Z,99317.21
2022-12-11T03:34:14.435Z,99321.13
2022-12-11T03:36:18.730Z,99316.47
2022-12-11T03:38:23.085Z,99318.98
2022-12-11T03:40:27.389Z,99315.78
2022-12-11T03:42:31.683Z,99314.53
2022-12-11T03:44:35.987Z,99315.97
2022-12-11T03:46:40.259Z,99314.55
2022-12-11T03:48:44.589Z,99311.59
2022-12-11T03:50:48.881Z,99313.4
2022-12-11T03:52:53.195Z,99314.25
2022-12-11T03:54:57.615Z,99312.7
2022-12-11T03:57:01.932Z,99314.06
2022-12-11T03:59:06.219Z,99309.84
2022-12-11T04:01:10.516Z,99306.27
2022-12-11T04:03:15.718Z,99305.28
2022-12-11T04:05:20.059Z,99301.68
2022-12-11T04:07:24.349Z,99294.21
2022-12-11T04:09:28.677Z,99296.47
2022-12-11T04:11:32.971Z,99296.97
2022-12-11T04:13:37.387Z,99297.53
2022-12-11T04:15:41.934Z,99298.71
2022-12-11T04:17:46.350Z,99296.06
2022-12-11T04:19:50.668Z,99293.77
2022-12-11T04:21:54.988Z,99292.82
2022-12-11T04:23:59.255Z,99291.77
2022-12-11T04:26:03.562Z,99289.41
2022-12-11T04:28:07.871Z,99283.86
2022-12-11T04:30:12.191Z,99282.23
2022-12-11T04:32:16.504Z,99280.61
2022-12-11T04:34:20.879Z,99283.26
2022-12-11T04:36:25.205Z,99283.86
2022-12-11T04:38:29.501Z,99289.2
2022-12-11T04:40:33.820Z,99285.38
2022-12-11T04:42:38.108Z,99282.14
2022-12-11T04:44:42.417Z,99281.27
2022-12-11T04:46:46.838Z,99279.66
2022-12-11T04:48:58.219Z,99278.02
2022-12-11T04:51:02.738Z,99282.26
2022-12-11T04:53:07.048Z,99285.75
2022-12-11T04:55:12.161Z,99283.06
2022-12-11T04:57:17.126Z,99286.45
2022-12-11T04:59:21.437Z,99284.41
2022-12-11T05:01:25.844Z,99280.47
2022-12-11T05:03:30.247Z,99277.28
2022-12-11T05:05:34.600Z,99270.27
2022-12-11T05:07:38.898Z,99269.5
2022-12-11T05:09:43.219Z,99269.2
2022-12-11T05:11:47.519Z,99266.48
2022-12-11T05:13:51.835Z,99269.2
2022-12-11T05:15:56.454Z,99272.27
2022-12-11T05:18:00.911Z,99268.3
2022-12-11T05:20:05.262Z,99265.56
2022-12-11T05:22:09.563Z,99261.06
2022-12-11T05:24:13.850Z,99256.02
2022-12-11T05:26:18.147Z,99260.95
2022-12-11T05:28:22.489Z,99259.41
2022-12-11T05:30:26.810Z,99262.87
2022-12-11T05:32:31.133Z,99261.45
2022-12-11T05:34:35.491Z,99257.95
2022-12-11T05:36:39.817Z,99257.73
2022-12-11T05:38:44.131Z,99255.76
2022-12-11T05:40:48.455Z,99257.5
2022-12-11T05:42:52.772Z,99257.55
2022-12-11T05:44:57.092Z,99252.98
2022-12-11T05:47:01.563Z,99254.06
2022-12-11T05:49:05.997Z,99253.77
2022-12-11T05:51:10.299Z,99256.84
2022-12-11T05:53:14.631Z,99252.11
2022-12-11T05:55:18.898Z,99252.27
2022-12-11T05:57:23.214Z,99254.8
2022-12-11T05:59:27.502Z,99254.51
2022-12-11T06:01:31.759Z,99256.04
2022-12-11T06:03:36.119Z,99256.26
2022-12-11T06:05:40.425Z,99260.58
2022-12-11T06:07:44.847Z,99260.39
2022-12-11T06:09:49.230Z,99259.59
2022-12-11T06:11:53.521Z,99265.33
2022-12-11T06:13:57.883Z,99262.19
2022-12-11T06:16:02.287Z,99267.59
2022-12-11T06:18:06.710Z,99268.66
2022-12-11T06:20:11.011Z,99273.23
2022-12-11T06:22:15.325Z,99279.2
2022-12-11T06:24:19.682Z,99279.2
2022-12-11T06:26:24.013Z,99275.63
2022-12-11T06:28:28.332Z,99277.84
2022-12-11T06:30:39.784Z,99279.77
2022-12-11T06:32:44.090Z,99281.07
2022-12-11T06:34:48.388Z,99291.52
2022-12-11T06:36:52.700Z,99293.69
2022-12-11T06:38:57.002Z,99297.95
2022-12-11T06:41:01.325Z,99299.5
2022-12-11T06:43:05.640Z,99301.05
2022-12-11T06:45:10.711Z,99303.48
2022-12-11T06:47:15.613Z,99300.71
2022-12-11T06:49:19.914Z,99303.78
2022-12-11T06:51:24.232Z,99304.12
2022-12-11T06:53:28.606Z,99309.17
2022-12-11T06:55:32.929Z,99309.68
2022-12-11T06:57:37.218Z,99310.92
2022-12-11T06:59:41.530Z,99308.19
2022-12-11T07:01:45.870Z,99308.41
2022-12-11T07:03:50.227Z,99304.77
2022-12-11T07:05:54.567Z,99306.3
2022-12-11T07:07:58.975Z,99306.69
2022-12-11T07:10:09.370Z,99309.98
2022-12-11T07:12:13.702Z,99313.41
2022-12-11T07:14:18.003Z,99313.75
2022-12-11T07:16:22.537Z,99311.58
2022-12-11T07:18:27.077Z,99308.08
2022-12-11T07:20:31.451Z,99311.2
2022-12-11T07:22:36.048Z,99316.3
2022-12-11T07:24:46.448Z,99318.11
2022-12-11T07:26:50.725Z,99310.45
2022-12-11T07:28:55.041Z,99311.53
2022-12-11T07:30:59.386Z,99312.96
2022-12-11T07:33:03.827Z,99315.45
2022-12-11T07:35:08.451Z,99314.77
2022-12-11T07:37:13.554Z,99319.27
2022-12-11T07:39:17.856Z,99318.3
2022-12-11T07:41:22.191Z,99322.05
2022-12-11T07:43:26.538Z,99320.41
2022-12-11T07:45:30.993Z,99314.34
2022-12-11T07:47:35.504Z,99313.25
2022-12-11T07:49:39.901Z,99311.34
2022-12-11T07:51:44.212Z,99308.48
2022-12-11T07:53:48.572Z,99312.02
2022-12-11T07:55:52.919Z,99308.09
2022-12-11T07:57:57.279Z,99313.47
2022-12-11T08:00:01.619Z,99310.85
2022-12-11T08:02:06.071Z,99308.94
2022-12-11T08:04:10.540Z,99308.83
2022-12-11T08:06:14.873Z,99310.98
2022-12-11T08:08:19.406Z,99314.05
2022-12-11T08:10:23.858Z,99315
2022-12-11T08:12:28.402Z,99323.28
2022-12-11T08:14:32.714Z,99320.69
2022-12-11T08:16:37.154Z,99323.69
2022-12-11T08:18:41.615Z,99321.37
2022-12-11T08:20:45.932Z,99321.17
2022-12-11T08:22:53.447Z,99315.84
2022-12-11T08:25:02.758Z,99312.69
2022-12-11T08:27:07.065Z,99314.75
2022-12-11T08:29:11.406Z,99315.61
2022-12-11T08:31:15.917Z,99317.65
2022-12-11T08:33:20.308Z,99315.88
2022-12-11T08:35:24.633Z,99311.27
2022-12-11T08:37:28.907Z,99311.42
2022-12-11T08:39:33.210Z,99311.7
2022-12-11T08:41:37.511Z,99324.51
2022-12-11T08:43:41.956Z,99325.69
2022-12-11T08:45:46.402Z,99327.63
2022-12-11T08:47:50.806Z,99327.53
2022-12-11T08:49:55.089Z,99323.65
2022-12-11T08:51:59.420Z,99328.52
2022-12-11T08:54:03.724Z,99328.08
2022-12-11T08:56:08.029Z,99330.89
2022-12-11T08:58:12.352Z,99334
2022-12-11T09:00:16.652Z,99335.18
2022-12-11T09:02:21.142Z,99340.5
2022-12-11T09:04:25.616Z,99340
2022-12-11T09:06:29.958Z,99325.81
2022-12-11T09:08:34.325Z,99323.78
2022-12-11T09:10:38.631Z,99317.06
2022-12-11T09:12:43.006Z,99324.69
2022-12-11T09:14:47.344Z,99315.02
2022-12-11T09:16:51.688Z,99312.48
2022-12-11T09:18:56.040Z,99306.09
2022-12-11T09:21:00.391Z,99300.89
2022-12-11T09:23:04.727Z,99305.45
2022-12-11T09:25:09.580Z,99298.15
2022-12-11T09:27:14.691Z,99299.78
2022-12-11T09:29:18.992Z,99293.55
2022-12-11T09:31:23.477Z,99291.86
2022-12-11T09:33:27.992Z,99285.09
2022-12-11T09:35:32.285Z,99281.95
2022-12-11T09:37:36.648Z,99282.49
2022-12-11T09:39:40.983Z,99282.81
2022-12-11T09:41:45.301Z,99274.87
2022-12-11T09:43:49.670Z,99273.81
2022-12-11T09:45:54.155Z,99272.61
2022-12-11T09:47:58.567Z,99273.53
2022-12-11T09:50:02.885Z,99273.47
2022-12-11T09:52:07.206Z,99276.66
2022-12-11T09:54:11.543Z,99272.15
2022-12-11T09:56:15.791Z,99271.45
2022-12-11T09:58:20.085Z,99263.06
2022-12-11T10:00:24.412Z,99259.41
2022-12-11T10:02:28.905Z,99258.41
2022-12-11T10:04:33.389Z,99254.19
2022-12-11T10:06:37.855Z,99251.16
2022-12-11T10:08:42.172Z,99257.94
2022-12-11T10:10:46.525Z,99254.64
2022-12-11T10:12:50.854Z,99253.2
2022-12-11T10:14:55.276Z,99255.72
2022-12-11T10:16:59.713Z,99253.72
2022-12-11T10:19:04.012Z,99246.73
2022-12-11T10:21:08.325Z,99242.45
2022-12-11T10:23:12.668Z,99243.17
2022-12-11T10:25:16.955Z,99233.27
2022-12-11T10:27:21.325Z,99230.45
2022-12-11T10:29:25.752Z,99230.11
2022-12-11T10:31:30.289Z,99231.92
2022-12-11T10:33:34.866Z,99226.81
2022-12-11T10:35:39.226Z,99228.34
2022-12-11T10:37:43.529Z,99227.03
2022-12-11T10:39:47.954Z,99230.25
2022-12-11T10:41:52.254Z,99227.3
2022-12-11T10:43:56.605Z,99228.28
2022-12-11T10:46:01.292Z,99224.02
2022-12-11T10:48:05.877Z,99225.86
2022-12-11T10:50:10.226Z,99225.41
2022-12-11T10:52:14.579Z,99222.25
2022-12-11T10:54:18.972Z,99217.95
2022-12-11T10:56:23.414Z,99213.3
2022-12-11T10:58:27.790Z,99212.44
2022-12-11T11:00:32.166Z,99218.08
2022-12-11T11:02:36.688Z,99218.76
2022-12-11T11:04:41.159Z,99214.45
2022-12-11T11:06:45.613Z,99214.59
2022-12-11T11:08:49.995Z,99208.27
2022-12-11T11:10:54.381Z,99200.25
2022-12-11T11:12:58.768Z,99203.62
2022-12-11T11:15:03.116Z,99198.36
2022-12-11T11:17:07.471Z,99195.36
2022-12-11T11:19:11.861Z,99196.63
2022-12-11T11:21:16.283Z,99193.48
2022-12-11T11:23:20.601Z,99195.08
2022-12-11T11:25:24.917Z,99190.67
2022-12-11T11:27:29.257Z,99182.84
2022-12-11T11:29:33.577Z,99179.73
2022-12-11T11:31:38.215Z,99179.38
2022-12-11T11:33:42.670Z,99181.13
2022-12-11T11:35:47.073Z,99180.53
2022-12-11T11:37:51.409Z,99180.18
2022-12-11T11:39:55.695Z,99173.13
2022-12-11T11:42:00.047Z,99172.47
2022-12-11T11:44:04.375Z,99168.14
2022-12-11T11:46:08.797Z,99165.91
2022-12-11T11:48:13.254Z,99168.52
2022-12-11T11:50:17.551Z,99168.03
2022-12-11T11:52:21.934Z,99168.62
2022-12-11T11:54:26.229Z,99170.51
2022-12-11T11:56:30.542Z,99170.73
2022-12-11T11:58:34.858Z,99168.3
2022-12-11T12:00:39.230Z,99164.81
2022-12-11T12:02:43.765Z,99161.83
2022-12-11T12:04:48.162Z,99162.88
2022-12-11T12:06:52.493Z,99164.39
2022-12-11T12:08:56.775Z,99165.45
2022-12-11T12:11:01.134Z,99164.78
2022-12-11T12:13:30.406Z,99161.88
2022-12-11T12:15:53.627Z,99160.08
2022-12-11T12:17:58.132Z,99161.63
2022-12-11T12:20:02.472Z,99165.32
2022-12-11T12:22:06.780Z,99165.48
2022-12-11T12:24:11.098Z,99162.63
2022-12-11T12:26:15.403Z,99162.52
2022-12-11T12:28:19.729Z,99159.36
2022-12-11T12:30:25.131Z,99164
2022-12-11T12:32:29.429Z,99157.88
2022-12-11T12:34:33.741Z,99160.48
2022-12-11T12:36:38.038Z,99159.74
2022-12-11T12:38:42.386Z,99158.47
2022-12-11T12:40:46.714Z,99164.3
2022-12-11T12:42:51.039Z,99160.91
2022-12-11T12:44:55.374Z,99159.26
2022-12-11T12:46:59.722Z,99166.52
2022-12-11T12:49:04.027Z,99161.1
2022-12-11T12:51:08.347Z,99155.47
2022-12-11T12:53:12.710Z,99156.68
2022-12-11T12:55:17.051Z,99156.3
2022-12-11T12:57:21.354Z,99153.27
2022-12-11T12:59:25.725Z,99154.14
2022-12-11T13:01:30.235Z,99153.19
2022-12-11T13:03:34.716Z,99156.17
2022-12-11T13:05:39.024Z,99160.97
2022-12-11T13:07:43.355Z,99165.11
2022-12-11T13:09:47.802Z,99167.29
2022-12-11T13:11:52.118Z,99170.09
2022-12-11T13:13:56.417Z,99166.93
2022-12-11T13:16:00.883Z,99162.74
2022-12-11T13:18:05.357Z,99166.24
2022-12-11T13:20:09.737Z,99166.12
2022-12-11T13:22:14.009Z,99165.84
2022-12-11T13:24:18.347Z,99164.52
2022-12-11T13:26:22.664Z,99156.62
2022-12-11T13:28:26.972Z,99163.17
2022-12-11T13:30:31.334Z,99166.39
2022-12-11T13:32:35.673Z,99162.07
2022-12-11T13:34:40.063Z,99163.91
2022-12-11T13:36:44.598Z,99160.01
2022-12-11T13:38:49.045Z,99159.51
2022-12-11T13:40:53.443Z,99159.58
2022-12-11T13:42:57.921Z,99165.22
2022-12-11T13:45:02.230Z,99165.8
2022-12-11T13:47:06.664Z,99159.39
2022-12-11T13:49:11.000Z,99159.87
2022-12-11T13:51:15.291Z,99159.02
2022-12-11T13:53:19.617Z,99163.78
2022-12-11T13:55:23.957Z,99159.63
2022-12-11T13:57:28.338Z,99161.94
2022-12-11T13:59:32.678Z,99164.73
2022-12-11T14:01:37.051Z,99164.22
2022-12-11T14:03:41.486Z,99168.16
2022-12-11T14:05:45.769Z,99160.48
2022-12-11T14:07:50.319Z,99160.98
2022-12-11T14:09:54.766Z,99161.05
2022-12-11T14:11:59.127Z,99180.25
2022-12-11T14:14:03.469Z,99172
2022-12-11T14:16:07.883Z,99170.8
2022-12-11T14:18:12.335Z,99177.13
2022-12-11T14:20:16.648Z,99174.8
2022-12-11T14:22:20.980Z,99174.02
2022-12-11T14:24:25.293Z,99175.59
2022-12-11T14:26:29.606Z,99174.25
2022-12-11T14:28:33.922Z,99173.05
2022-12-11T14:30:38.255Z,99173.3
2022-12-11T14:32:42.540Z,99173.44
2022-12-11T14:34:46.851Z,99165.14
2022-12-11T14:36:51.170Z,99166.82
2022-12-11T14:38:55.469Z,99163.88
2022-12-11T14:40:59.786Z,99158.77
2022-12-11T14:43:04.080Z,99156.38
2022-12-11T14:45:08.447Z,99157.3
2022-12-11T14:47:12.780Z,99156.52
2022-12-11T14:49:17.098Z,99150.88
2022-12-11T14:51:21.436Z,99149.23
2022-12-11T14:53:25.775Z,99153.8
2022-12-11T14:55:30.069Z,99157.62
2022-12-11T14:57:34.453Z,99157.79
2022-12-11T14:59:38.885Z,99154.77
2022-12-11T15:01:43.318Z,99162
2022-12-11T15:03:47.717Z,99153.25
2022-12-11T15:05:52.018Z,99161.33
2022-12-11T15:07:56.574Z,99159.02
2022-12-11T15:10:01.014Z,99162.19
2022-12-11T15:12:05.328Z,99165.72
2022-12-11T15:14:09.701Z,99162.49
2022-12-11T15:16:14.981Z,99162.51
2022-12-11T15:18:19.432Z,99163.09
2022-12-11T15:20:23.750Z,99161.44
2022-12-11T15:22:28.085Z,99163.83
2022-12-11T15:24:32.413Z,99164.17
2022-12-11T15:26:36.762Z,99161.22
2022-12-11T15:28:41.150Z,99163.95
2022-12-11T15:30:45.651Z,99161.96
2022-12-11T15:32:50.208Z,99164.58
2022-12-11T15:34:54.552Z,99173.28
2022-12-11T15:36:58.833Z,99178.95
2022-12-11T15:39:03.172Z,99169.53
2022-12-11T15:41:07.496Z,99167.88
2022-12-11T15:43:11.835Z,99170
2022-12-11T15:45:16.194Z,99167.73
2022-12-11T15:47:20.518Z,99169.55
2022-12-11T15:49:24.894Z,99166.83
2022-12-11T15:51:29.194Z,99162.34
2022-12-11T15:53:33.529Z,99163.98
2022-12-11T15:55:37.860Z,99166.14
2022-12-11T15:57:42.221Z,99164.38
2022-12-11T15:59:46.694Z,99163.8
2022-12-11T16:01:51.317Z,99162.69
2022-12-11T16:03:58.155Z,99168.53
2022-12-11T16:06:08.636Z,99169.41
2022-12-11T16:08:13.090Z,99166.45
2022-12-11T16:10:17.584Z,99163.67
2022-12-11T16:12:21.934Z,99166.77
2022-12-11T16:14:26.245Z,99166.39
2022-12-11T16:16:30.561Z,99166.14
2022-12-11T16:18:34.868Z,99169.35
2022-12-11T16:20:39.205Z,99169.92
2022-12-11T16:22:43.532Z,99170.34
2022-12-11T16:24:47.868Z,99176.04
2022-12-11T16:26:52.222Z,99171.96
2022-12-11T16:28:56.550Z,99171.45
2022-12-11T16:31:00.978Z,99171.08
2022-12-11T16:33:13.583Z,99170.98
2022-12-11T16:35:18.076Z,99164.45
2022-12-11T16:37:22.415Z,99163.44
2022-12-11T16:39:26.711Z,99163.78
2022-12-11T16:41:31.031Z,99161.39
2022-12-11T16:43:35.457Z,99158.16
2022-12-11T16:45:39.787Z,99157.81
2022-12-11T16:47:44.212Z,99154.8
2022-12-11T16:49:48.529Z,99147.67
2022-12-11T16:51:52.814Z,99151.84
2022-12-11T16:53:57.136Z,99150.23
2022-12-11T16:56:01.427Z,99151.85
2022-12-11T16:58:06.110Z,99148.84
2022-12-11T17:03:26.118Z,99145.58
2022-12-11T17:05:30.443Z,99144.36
2022-12-11T17:07:34.801Z,99141.57
2022-12-11T17:09:39.153Z,99139.92
2022-12-11T17:11:43.452Z,99141.13
2022-12-11T17:13:47.741Z,99140.2
2022-12-11T17:15:52.180Z,99134.45
2022-12-11T17:17:56.558Z,99138.03
2022-12-11T17:20:00.893Z,99138.55
2022-12-11T17:22:05.233Z,99133.47
2022-12-11T17:24:09.585Z,99138.77
2022-12-11T17:26:13.905Z,99145.31
2022-12-11T17:28:18.188Z,99147.15
2022-12-11T17:30:22.503Z,99145.51
2022-12-11T17:32:26.789Z,99141.86
2022-12-11T17:34:38.902Z,99143.04
2022-12-11T17:36:43.237Z,99147.92
2022-12-11T17:38:47.728Z,99146.52
2022-12-11T17:40:52.221Z,99140.48
2022-12-11T17:42:56.629Z,99148.61
2022-12-11T17:45:01.083Z,99143.66
2022-12-11T17:47:11.790Z,99149.05
2022-12-11T17:49:16.161Z,99147.58
2022-12-11T17:51:20.499Z,99144.86
2022-12-11T17:53:24.811Z,99147.55
2022-12-11T17:55:29.332Z,99152.89
2022-12-11T17:57:33.708Z,99147.25
2022-12-11T17:59:38.086Z,99143.72
2022-12-11T18:01:42.611Z,99147.53
2022-12-11T18:03:47.282Z,99148.51
2022-12-11T18:05:51.810Z,99153.44
2022-12-11T18:07:59.129Z,99155.55
2022-12-11T18:10:03.580Z,99151.75
2022-12-11T18:12:07.913Z,99152.98
2022-12-11T18:14:18.186Z,99148.71
2022-12-11T18:16:22.700Z,99152.76
2022-12-11T18:18:27.399Z,99149.52
2022-12-11T18:20:31.884Z,99153.84
2022-12-11T18:22:36.355Z,99154.48
2022-12-11T18:24:40.679Z,99157.41
2022-12-11T18:26:45.066Z,99157.18
2022-12-11T18:28:50.539Z,99153.24
2022-12-11T18:30:55.028Z,99155.1
2022-12-11T18:32:59.522Z,99157.32
2022-12-11T18:35:03.833Z,99154.36
2022-12-11T18:37:08.249Z,99152.3
2022-12-11T18:39:12.633Z,99151.47
2022-12-11T18:41:17.028Z,99151.55
2022-12-11T18:43:21.403Z,99157.52
2022-12-11T18:45:25.765Z,99155.88
2022-12-11T18:47:30.178Z,99157.23
2022-12-11T18:49:34.966Z,99156.73
2022-12-11T18:51:39.586Z,99153.14
2022-12-11T18:53:44.261Z,99152.53
2022-12-11T18:55:48.801Z,99155.89
2022-12-11T18:57:53.243Z,99151.8
2022-12-11T18:59:57.690Z,99154.42
2022-12-11T19:02:02.106Z,99151.72
2022-12-11T19:04:11.869Z,99151.34
2022-12-11T19:06:16.212Z,99152.45
2022-12-11T19:08:20.801Z,99149.74
2022-12-11T19:10:25.332Z,99144.25
2022-12-11T19:12:29.853Z,99143.77
2022-12-11T19:14:34.220Z,99142.65
2022-12-11T19:16:38.751Z,99137.7
2022-12-11T19:18:43.306Z,99132.86
2022-12-11T19:20:55.582Z,99133.55
2022-12-11T19:23:11.822Z,99131.94
2022-12-11T19:25:16.215Z,99133.25
2022-12-11T19:27:20.609Z,99130.08
2022-12-11T19:29:25.146Z,99129.39
2022-12-11T19:31:29.740Z,99131.81
2022-12-11T19:33:34.244Z,99145.67
2022-12-11T19:35:38.655Z,99130.91
2022-12-11T19:37:43.021Z,99137.46
2022-12-11T19:39:47.391Z,99136.3
2022-12-11T19:41:51.810Z,99136.38
2022-12-11T19:43:56.266Z,99138.28
2022-12-11T19:46:00.633Z,99137.88
2022-12-11T19:48:05.083Z,99133.71
2022-12-11T19:50:09.432Z,99136.51
2022-12-11T19:52:13.833Z,99134.34
2022-12-11T19:54:18.157Z,99139.17
2022-12-11T19:56:22.586Z,99131.86
2022-12-11T19:58:26.957Z,99132.45
2022-12-11T20:00:31.414Z,99132.93
2022-12-11T20:02:35.967Z,99136.94
2022-12-11T20:04:40.304Z,99137.37
2022-12-11T20:06:44.805Z,99134.07
2022-12-11T20:08:49.313Z,99133.12
2022-12-11T20:10:53.822Z,99131.3
2022-12-11T20:12:58.153Z,99133.48
2022-12-11T20:15:02.519Z,99132.99
2022-12-11T20:17:15.813Z,99132.77
2022-12-11T20:19:20.279Z,99135.17
2022-12-11T20:21:24.597Z,99128.08
2022-12-11T20:23:28.947Z,99127.11
2022-12-11T20:25:33.331Z,99129.16
2022-12-11T20:27:38.908Z,99125.74
2022-12-11T20:29:43.366Z,99125.33
2022-12-11T20:31:47.979Z,99122.09
2022-12-11T20:33:52.537Z,99126.92
2022-12-11T20:35:56.837Z,99121.87
2022-12-11T20:38:01.164Z,99141.28
2022-12-11T20:40:05.503Z,99143.5
2022-12-11T20:42:09.950Z,99145.95
2022-12-11T20:44:14.317Z,99144.38
2022-12-11T20:46:18.966Z,99143.97
2022-12-11T20:48:23.280Z,99137.98
2022-12-11T20:50:27.631Z,99126.09
2022-12-11T20:52:32.269Z,99123.28
2022-12-11T20:54:36.986Z,99117.9
2022-12-11T20:56:41.381Z,99114.2
2022-12-11T20:58:45.896Z,99116.33
2022-12-11T21:00:50.579Z,99111.03
2022-12-11T21:02:55.158Z,99116.92
2022-12-11T21:04:59.509Z,99114.14
2022-12-11T21:07:03.870Z,99112.58
2022-12-11T21:09:08.234Z,99108.36
2022-12-11T21:11:12.616Z,99106.64
2022-12-11T21:13:16.913Z,99104.92
2022-12-11T21:15:21.276Z,99108.94
2022-12-11T21:17:25.588Z,99108.66
2022-12-11T21:19:29.973Z,99114.07
2022-12-11T21:21:34.287Z,99111.05
2022-12-11T21:23:38.618Z,99111.25
2022-12-11T21:25:43.027Z,99112.93
2022-12-11T21:27:47.741Z,99115.46
2022-12-11T21:29:52.099Z,99109.77
2022-12-11T21:31:56.702Z,99110.23
2022-12-11T21:34:01.240Z,99110.8
2022-12-11T21:36:05.620Z,99111.45
2022-12-11T21:38:10.013Z,99107.05
2022-12-11T21:40:14.346Z,99105.42
2022-12-11T21:42:18.704Z,99103.56
2022-12-11T21:47:57.549Z,99107.62
2022-12-11T21:50:01.844Z,99105.38
2022-12-11T21:52:06.215Z,99110.38
2022-12-11T21:54:10.541Z,99111.86
2022-12-11T21:56:14.856Z,99112.86
2022-12-11T21:58:19.227Z,99113.28
2022-12-11T22:00:23.567Z,99109.18
2022-12-11T22:02:28.069Z,99108.91
2022-12-11T22:04:32.628Z,99111.22
2022-12-11T22:06:36.957Z,99112.44
2022-12-11T22:08:43.162Z,99105.25
2022-12-11T22:10:47.501Z,99102.02
2022-12-11T22:12:51.783Z,99105.2
2022-12-11T22:14:56.095Z,99106.23
2022-12-11T22:17:00.681Z,99104.3
2022-12-11T22:19:05.280Z,99104.41
2022-12-11T22:21:09.631Z,99102.53
2022-12-11T22:23:14.154Z,99107.2
2022-12-11T22:25:18.608Z,99105.61
2022-12-11T22:27:24.999Z,99101.68
2022-12-11T22:29:29.362Z,99105.91
2022-12-11T22:31:33.796Z,99105.41
2022-12-11T22:33:38.287Z,99105.94
2022-12-11T22:35:42.691Z,99100.74
2022-12-11T22:37:47.055Z,99102.33
2022-12-11T22:39:51.453Z,99102.74
2022-12-11T22:41:55.841Z,99103.78
2022-12-11T22:44:00.124Z,99104.97
2022-12-11T22:46:04.699Z,99099.71
2022-12-11T22:48:09.205Z,99099.08
2022-12-11T22:50:13.622Z,99104.64
2022-12-11T22:52:18.030Z,99102.2
2022-12-11T22:54:22.287Z,99103.39
2022-12-11T22:56:26.601Z,99098.34
2022-12-11T22:58:30.923Z,99101.36
2022-12-11T23:00:35.290Z,99101.53
2022-12-11T23:02:40.004Z,99103.77
2022-12-11T23:04:44.617Z,99114.55
2022-12-11T23:06:48.938Z,99102.34
2022-12-11T23:08:53.388Z,99100.35
2022-12-11T23:10:57.783Z,99100.8
2022-12-11T23:13:02.079Z,99099.28
2022-12-11T23:15:06.459Z,99098
2022-12-11T23:17:10.908Z,99095.27
2022-12-11T23:19:15.293Z,99091.97
2022-12-11T23:21:22.987Z,99095.19
2022-12-11T23:23:27.497Z,99093.09
2022-12-11T23:25:31.870Z,99093.42
2022-12-11T23:27:36.186Z,99087.94
2022-12-11T23:29:40.523Z,99087.64
2022-12-11T23:31:44.890Z,99083.09
2022-12-11T23:33:49.210Z,99086.16
2022-12-11T23:35:53.487Z,99089.84
2022-12-11T23:37:57.807Z,99089.89
2022-12-11T23:40:02.137Z,99086.23
2022-12-11T23:42:06.415Z,99085.8
2022-12-11T23:44:10.747Z,99084.5
2022-12-11T23:46:15.232Z,99086.16
2022-12-11T23:48:19.660Z,99089.23
2022-12-11T23:50:24.051Z,99094.22
2022-12-11T23:52:28.377Z,99090.3
2022-12-11T23:54:32.712Z,99093.31
2022-12-11T23:56:37.004Z,99095.58
2022-12-11T23:58:41.298Z,99098.83
